aviador You're here:

PAIK Decoded Metar

in _UNIDENTIFIED
Report Time2018-02-25 15:03:00
UTC Time2018-02-25 15:36:10
Flight Rules mvfr MVFR
Wind280° at 09 kt
W.Decomp.*RWY 24: 8.3 kt HW 3.4 kt RCW
W.Rank280° ranks 36
Current wind is above 280° avg. (5.2)
Visibility9999 m
Phenomena:N/A
Clouds:Few 018 Hf
Broken 025 Hf
Expected CloudBase > 1,200 ft AGL from Temp-Dew spread
Ceiling2,500 ft
Temp-16°C (ISA -31)
Dew Point-19°C (78% RH)
AAT-22.8°C
QNH1012 hPa
Density Alt-3,668 ft
Elevation167 ft
Report Wrong Elevation
Raw Report
PAIK 251503Z AUTO 28009KT 10SM FEW018 BKN025 M16/M19 A2987 RMK AO2
FZRANO=

Extra information for PAIK:More info

Metar Taf Metar & Taf Last 4 Metars F.Rules Stats Wind Profile Meteogram Temp Stats Metar ALERT Operation Metar Decoded Social comments